Time;durP1;ratioP1;P1;durP2;ratioP2;P2;SDS_P1;SDS_P2;PMS_P1;PMS_P2;Temp;Humidity;BMP_temperature;BMP_pressure;BME280_temperature;BME280_humidity;BME280_pressure;Samples;Min_cycle;Max_cycle;Signal;HPM_P1;HPM_P2
2023/09/30 00:00:17;;;;;;;;;;;20.20;88.70;;;20.53;53.88;99506.66;5029293;27;124134;-79
2023/09/30 00:02:43;;;;;;;;;;;20.20;88.70;;;20.51;53.75;99514.63;5068659;27;113999;-81
2023/09/30 00:05:14;;;;;;;;;;;20.30;88.80;;;20.49;53.66;99503.72;5019361;27;113696;-81
2023/09/30 00:07:40;;;;;;;;;;;20.30;88.90;;;20.45;54.20;99494.41;5021915;27;124502;-81
2023/09/30 00:10:07;;;;;;;;;;;20.20;88.90;;;20.46;53.93;99498.03;5028760;27;122877;-79
2023/09/30 00:12:33;;;;;;;;;;;20.20;89.20;;;20.42;54.09;99488.72;5068620;27;114259;-82
2023/09/30 00:15:00;;;;;;;;;;;20.20;89.50;;;20.41;54.57;99487.06;5049225;27;113850;-81
2023/09/30 00:17:28;;;;;;;;;;;20.20;89.70;;;20.41;54.23;99498.31;5032719;27;124437;-82
2023/09/30 00:20:00;;;;;;;;;;;20.20;89.80;;;20.42;54.23;99502.75;5025742;27;123041;-81
2023/09/30 00:22:26;;;;;;;;;;;20.20;89.90;;;20.45;54.40;99496.41;5030501;27;113987;-79
2023/09/30 00:24:54;;;;;;;;;;;20.10;89.80;;;20.49;54.35;99500.13;5039269;27;113782;-80
2023/09/30 00:27:21;;;;;;;;;;;20.20;90.00;;;20.52;54.26;99500.22;5061067;27;124262;-79
2023/09/30 00:29:47;;;;;;;;;;;20.20;90.00;;;20.56;54.10;99494.72;5046896;27;122784;-78
2023/09/30 00:32:13;;;;;;;;;;;20.20;90.00;;;20.56;54.03;99497.53;5032862;27;115407;-78
2023/09/30 00:34:40;;;;;;;;;;;20.20;90.00;;;20.55;54.21;99501.50;5046513;27;114550;-81
2023/09/30 00:37:06;;;;;;;;;;;20.20;89.90;;;20.55;54.53;99507.13;5032030;27;124304;-80
2023/09/30 00:39:37;;;;;;;;;;;20.20;90.00;;;20.55;54.37;99509.09;5030387;27;123508;-81
2023/09/30 00:42:04;;;;;;;;;;;20.30;90.00;;;20.52;54.24;99510.63;5044471;27;114520;-81
2023/09/30 00:44:31;;;;;;;;;;;20.30;90.10;;;20.52;54.40;99516.22;5042356;27;113929;-80
2023/09/30 00:46:57;;;;;;;;;;;20.20;90.00;;;20.51;54.70;99506.19;5030774;27;124458;-80
2023/09/30 00:49:24;;;;;;;;;;;20.20;90.10;;;20.51;54.41;99514.63;5038847;27;123990;-80
2023/09/30 00:51:51;;;;;;;;;;;20.20;90.10;;;20.53;54.45;99506.66;5048226;27;113542;-78
2023/09/30 00:54:23;;;;;;;;;;;20.20;90.20;;;20.51;54.78;99521.03;5034667;27;113845;-80
2023/09/30 00:56:50;;;;;;;;;;;20.30;90.40;;;20.51;55.04;99517.41;5053564;27;123183;-79
2023/09/30 00:59:17;;;;;;;;;;;20.20;90.50;;;20.50;55.33;99508.19;5062274;27;122736;-80
2023/09/30 01:01:47;;;;;;;;;;;20.30;90.70;;;20.51;55.29;99509.00;5078388;27;113573;-81
2023/09/30 01:04:14;;;;;;;;;;;20.20;90.70;;;20.50;55.50;99507.38;5024747;27;114204;-80
2023/09/30 01:06:43;;;;;;;;;;;20.30;90.80;;;20.51;55.29;99509.00;5027040;27;124122;-80
2023/09/30 01:09:12;;;;;;;;;;;20.20;90.80;;;20.50;55.33;99519.41;5017615;27;123118;-81
2023/09/30 01:11:40;;;;;;;;;;;20.20;90.90;;;20.49;55.34;99516.97;5021202;27;115164;-81
2023/09/30 01:14:25;;;;;;;;;;;20.20;90.90;;;20.40;55.82;99524.75;5021726;27;113748;-78
2023/09/30 01:16:51;;;;;;;;;;;20.20;91.10;;;20.36;55.66;99518.22;5034187;27;124151;-79
2023/09/30 01:19:18;;;;;;;;;;;20.10;91.00;;;20.31;55.70;99522.13;5037553;27;123323;-81
2023/09/30 01:21:50;;;;;;;;;;;20.10;91.00;;;20.30;55.64;99526.91;5076299;27;115560;-80
2023/09/30 01:24:16;;;;;;;;;;;20.10;90.90;;;20.29;55.81;99522.47;5077720;27;115196;-82
2023/09/30 01:26:43;;;;;;;;;;;20.10;90.90;;;20.27;55.41;99499.56;5037202;27;124269;-81
2023/09/30 01:29:10;;;;;;;;;;;18.40;90.10;;;20.26;55.43;99506.34;5039535;27;122906;-78
2023/09/30 01:31:39;;;;;;;;;;;20.80;91.20;;;20.25;55.39;99513.13;5047200;27;114476;-78
2023/09/30 01:34:05;;;;;;;;;;;20.00;90.80;;;20.24;55.47;99516.31;5078893;27;113999;-82
2023/09/30 01:36:32;;;;;;;;;;;20.00;90.80;;;20.25;55.58;99523.53;5040125;27;124129;-81
2023/09/30 01:38:58;;;;;;;;;;;20.00;90.80;;;20.26;55.11;99526.00;5044725;27;124121;-78
2023/09/30 01:41:25;;;;;;;;;;;20.00;90.90;;;20.26;55.58;99523.19;5042522;27;114400;-81
2023/09/30 01:43:51;;;;;;;;;;;20.00;90.90;;;20.22;55.62;99524.25;5046376;27;113877;-80
2023/09/30 01:46:17;;;;;;;;;;;20.00;91.00;;;20.19;55.74;99520.19;5040855;27;124185;-82
2023/09/30 01:48:43;;;;;;;;;;;20.00;91.40;;;20.15;55.77;99519.28;5039322;27;123926;-81
2023/09/30 01:51:10;;;;;;;;;;;19.90;91.10;;;20.11;55.83;99507.13;5044011;27;114560;-82
2023/09/30 01:53:36;;;;;;;;;;;19.90;91.20;;;20.07;56.23;99509.84;5031160;27;113590;-80
2023/09/30 01:56:03;;;;;;;;;;;19.90;91.30;;;20.04;56.59;99507.78;5027473;27;124582;-79
2023/09/30 01:58:31;;;;;;;;;;;19.90;91.40;;;20.03;56.47;99510.94;5028726;27;122800;-81
2023/09/30 02:01:04;;;;;;;;;;;19.80;91.40;;;20.02;56.56;99501.69;5026868;27;114321;-81
2023/09/30 02:03:32;;;;;;;;;;;19.80;91.50;;;20.00;56.70;99501.22;5030115;27;114246;-81
2023/09/30 02:05:59;;;;;;;;;;;19.80;91.60;;;19.98;56.84;99497.97;5045114;27;123602;-81
2023/09/30 02:08:25;;;;;;;;;;;19.80;91.70;;;20.00;56.91;99501.22;5028820;27;123306;-79
2023/09/30 02:10:52;;;;;;;;;;;19.80;91.70;;;20.03;56.76;99502.50;5026690;28;115421;-79
2023/09/30 02:13:18;;;;;;;;;;;19.80;92.00;;;20.05;56.88;99502.97;5041268;27;115308;-81
2023/09/30 02:15:44;;;;;;;;;;;19.80;91.80;;;20.06;56.76;99515.81;5027792;27;124400;-79
2023/09/30 02:18:10;;;;;;;;;;;19.80;91.90;;;20.07;56.92;99512.66;5025162;28;123906;-83
2023/09/30 02:20:39;;;;;;;;;;;19.80;91.90;;;20.08;56.62;99519.09;5028823;27;114349;-82
2023/09/30 02:23:10;;;;;;;;;;;19.80;92.00;;;20.10;56.77;99518.75;5035416;27;114390;-82
2023/09/30 02:25:39;;;;;;;;;;;19.80;92.00;;;20.08;56.67;99525.50;5027268;27;123490;-78
2023/09/30 02:28:06;;;;;;;;;;;19.80;92.00;;;20.06;57.03;99527.84;5031177;27;124566;-80
2023/09/30 02:30:32;;;;;;;;;;;19.80;92.00;;;20.07;56.85;99528.69;5032401;27;112457;-82
2023/09/30 02:32:59;;;;;;;;;;;19.80;92.10;;;20.04;57.06;99527.41;5048244;27;113749;-79
2023/09/30 02:35:26;;;;;;;;;;;19.80;92.10;;;20.03;56.76;99534.19;5027278;27;124851;-81
2023/09/30 02:37:52;;;;;;;;;;;19.80;92.10;;;20.02;56.84;99529.75;5028731;27;124113;-80
2023/09/30 02:40:19;;;;;;;;;;;19.70;92.00;;;20.01;56.97;99535.72;5033037;27;114362;-81
2023/09/30 02:42:48;;;;;;;;;;;19.70;92.00;;;19.98;56.85;99530.81;5024428;27;112783;-80
2023/09/30 02:45:17;;;;;;;;;;;19.70;92.10;;;19.94;56.81;99535.53;5020489;27;124033;-80
2023/09/30 02:47:43;;;;;;;;;;;19.70;92.10;;;19.92;56.83;99532.25;5030663;27;123197;-81
2023/09/30 02:50:13;;;;;;;;;;;19.70;92.10;;;19.92;57.24;99544.28;5030393;27;114902;-82
2023/09/30 02:52:43;;;;;;;;;;;19.60;92.20;;;19.94;57.22;99541.13;5030024;27;113737;-80
2023/09/30 02:55:10;;;;;;;;;;;19.60;92.20;;;19.95;57.12;99534.34;5020003;27;124428;-79
2023/09/30 02:57:37;;;;;;;;;;;19.70;92.20;;;19.97;56.70;99534.81;5030517;28;123978;-81
2023/09/30 03:02:53;;;;;;;;;;;19.70;92.10;;;19.94;56.82;99529.91;5034770;27;115196;-82
2023/09/30 03:05:20;;;;;;;;;;;19.70;92.10;;;19.90;56.62;99534.59;5029201;27;124202;-82
2023/09/30 03:07:50;;;;;;;;;;;19.60;92.00;;;19.90;56.58;99545.81;5066135;27;124145;-79
2023/09/30 03:10:23;;;;;;;;;;;19.60;92.00;;;19.85;56.71;99556.13;5062451;27;114572;-79
2023/09/30 03:12:50;;;;;;;;;;;19.60;92.00;;;19.81;56.47;99572.03;5029801;27;114111;-78
2023/09/30 03:15:19;;;;;;;;;;;19.60;91.90;;;19.78;56.67;99572.72;5029337;27;124859;-78
2023/09/30 03:17:45;;;;;;;;;;;19.50;91.90;;;19.73;56.75;99570.19;5032516;27;124016;-79
2023/09/30 03:20:13;;;;;;;;;;;19.50;92.20;;;19.71;56.84;99575.31;5029111;27;114724;-78
2023/09/30 03:22:40;;;;;;;;;;;19.50;92.00;;;19.69;56.87;99571.22;5025229;27;113801;-77
2023/09/30 03:25:09;;;;;;;;;;;19.50;92.00;;;19.70;56.99;99582.09;5022386;27;124000;-77
2023/09/30 03:27:36;;;;;;;;;;;19.40;92.00;;;19.72;56.78;99578.94;5031500;27;123001;-77
2023/09/30 03:30:08;;;;;;;;;;;19.40;92.10;;;19.72;56.52;99568.56;5031687;27;113352;-79
2023/09/30 03:32:41;;;;;;;;;;;19.40;92.10;;;19.74;56.75;99562.56;5023186;27;115056;-78
2023/09/30 03:35:16;;;;;;;;;;;19.50;92.10;;;19.74;56.80;99568.19;5021091;27;124271;-81
2023/09/30 03:37:48;;;;;;;;;;;19.50;92.10;;;19.75;56.76;99570.66;5015800;27;124235;-81
2023/09/30 03:40:18;;;;;;;;;;;19.40;92.00;;;19.76;56.46;99569.47;5031582;27;113748;-80
2023/09/30 03:42:46;;;;;;;;;;;19.50;92.10;;;19.76;56.65;99566.66;5030558;27;113631;-81
2023/09/30 03:45:14;;;;;;;;;;;19.40;92.00;;;19.76;56.26;99549.84;5032654;27;124104;-80
2023/09/30 03:47:43;;;;;;;;;;;19.50;92.00;;;19.77;56.54;99548.69;5029323;27;124102;-81
2023/09/30 03:50:15;;;;;;;;;;;19.40;92.00;;;19.78;56.25;99541.88;5029273;27;115484;-82
2023/09/30 03:52:44;;;;;;;;;;;19.50;92.10;;;19.77;56.34;99543.06;5029606;27;114723;-80
2023/09/30 03:55:12;;;;;;;;;;;19.50;92.10;;;19.76;56.52;99535.81;5026441;27;124447;-80
2023/09/30 03:57:38;;;;;;;;;;;19.50;92.00;;;19.78;56.48;99539.09;5061961;27;124026;-81
2023/09/30 04:00:15;;;;;;;;;;;19.50;92.00;;;19.79;56.40;99534.28;5043623;27;114535;-78
2023/09/30 04:02:42;;;;;;;;;;;19.50;92.00;;;19.80;56.32;99547.97;5029650;27;114505;-79
2023/09/30 04:05:11;;;;;;;;;;;19.50;92.00;;;19.81;56.47;99535.56;5028192;27;124522;-81
2023/09/30 04:07:37;;;;;;;;;;;19.50;91.90;;;19.80;56.23;99533.09;5021347;28;124211;-82
2023/09/30 04:10:04;;;;;;;;;;;19.50;91.90;;;19.78;55.98;99547.50;5024732;27;114272;-80
2023/09/30 04:12:34;;;;;;;;;;;19.50;91.90;;;19.77;56.16;99545.88;5031615;27;113673;-81
2023/09/30 04:15:00;;;;;;;;;;;19.50;91.90;;;19.75;56.12;99550.22;5000494;27;124218;-81
2023/09/30 04:17:27;;;;;;;;;;;19.50;91.90;;;19.72;56.11;99548.94;5023925;27;123985;-81
2023/09/30 04:19:53;;;;;;;;;;;19.40;91.90;;;19.70;56.57;99559.69;5028586;27;114631;-80
2023/09/30 04:22:21;;;;;;;;;;;19.40;92.00;;;19.69;56.55;99546.00;5024345;27;114413;-79
2023/09/30 04:24:51;;;;;;;;;;;19.40;92.00;;;19.67;56.27;99549.19;5021972;27;123249;-82
2023/09/30 04:27:18;;;;;;;;;;;19.40;92.00;;;19.65;56.37;99540.25;5028189;27;124737;-79
2023/09/30 04:29:44;;;;;;;;;;;19.30;92.00;;;19.65;56.52;99534.66;5028198;27;114271;-81
2023/09/30 04:32:10;;;;;;;;;;;19.40;92.10;;;19.65;56.63;99543.06;5042903;27;113989;-82
2023/09/30 04:34:39;;;;;;;;;;;19.40;92.10;;;19.64;56.63;99542.25;5028975;27;124652;-80
2023/09/30 04:37:05;;;;;;;;;;;19.40;92.10;;;;;;5028129;27;124535;-79
2023/09/30 04:39:35;;;;;;;;;;;19.40;92.10;;;19.62;56.45;99553.00;5017018;27;115789;-79
2023/09/30 04:42:03;;;;;;;;;;;19.40;92.10;;;19.60;56.48;99560.13;5032257;27;114805;-78
2023/09/30 04:44:29;;;;;;;;;;;19.40;92.10;;;19.57;56.61;99570.06;5028109;27;124164;-79
2023/09/30 04:46:59;;;;;;;;;;;19.30;92.10;;;19.53;57.01;99573.94;5028174;28;124053;-79
2023/09/30 04:49:25;;;;;;;;;;;19.30;92.20;;;19.51;57.15;99582.69;5018770;27;114589;-80
2023/09/30 04:51:52;;;;;;;;;;;19.30;92.30;;;19.48;57.17;99575.00;5018390;28;114100;-79
2023/09/30 04:54:21;;;;;;;;;;;19.20;92.30;;;19.42;57.37;99568.81;5020991;27;124437;-81
2023/09/30 04:56:51;;;;;;;;;;;19.20;92.30;;;19.37;57.45;99573.84;5029065;27;124014;-81
2023/09/30 04:59:17;;;;;;;;;;;19.20;92.40;;;19.34;57.49;99583.78;5029359;27;114678;-79
2023/09/30 05:01:43;;;;;;;;;;;19.20;92.40;;;19.33;57.74;99584.94;5028510;27;113311;-78
2023/09/30 05:04:09;;;;;;;;;;;19.10;92.50;;;19.29;57.59;99588.78;5028886;27;125250;-82
2023/09/30 05:06:36;;;;;;;;;;;19.10;92.50;;;19.24;57.71;99595.47;5029360;27;123557;-83
2023/09/30 05:09:02;;;;;;;;;;;19.10;92.60;;;19.20;57.83;99595.31;5017308;27;114664;-79
2023/09/30 05:11:28;;;;;;;;;;;19.00;92.60;;;19.17;58.03;99598.03;5029966;27;114763;-82
2023/09/30 05:13:55;;;;;;;;;;;19.00;93.00;;;19.14;57.92;99609.94;5027846;27;124131;-81
2023/09/30 05:16:21;;;;;;;;;;;19.00;92.80;;;19.12;58.34;99601.06;5028077;27;123663;-79
2023/09/30 05:18:52;;;;;;;;;;;19.00;92.80;;;19.12;58.30;99603.84;5040645;27;114718;-80
2023/09/30 05:21:18;;;;;;;;;;;18.90;92.80;;;19.11;58.33;99599.44;5036609;27;114356;-80
2023/09/30 05:23:46;;;;;;;;;;;18.90;92.90;;;19.10;58.40;99593.03;5041461;27;124214;-79
2023/09/30 05:26:12;;;;;;;;;;;18.90;93.00;;;19.12;58.40;99598.25;5028032;27;123916;-78
2023/09/30 05:28:39;;;;;;;;;;;18.90;93.00;;;19.13;58.38;99597.91;5043556;27;115313;-77
2023/09/30 05:31:06;;;;;;;;;;;18.90;93.00;;;19.12;58.25;99595.47;5036427;27;114868;-80
2023/09/30 05:33:32;;;;;;;;;;;18.90;93.00;;;19.11;58.34;99588.22;5027598;27;124200;-81
2023/09/30 05:36:02;;;;;;;;;;;18.90;93.10;;;19.12;58.41;99592.66;5039901;27;124477;-81
2023/09/30 05:38:31;;;;;;;;;;;18.90;93.10;;;19.12;58.45;99585.06;5031829;27;114655;-80
2023/09/30 05:40:58;;;;;;;;;;;18.90;93.10;;;19.14;58.41;99590.31;5032786;27;113886;-81
2023/09/30 05:43:27;;;;;;;;;;;18.90;93.10;;;19.16;58.34;99586.00;5025836;27;124778;-78
2023/09/30 05:45:55;;;;;;;;;;;18.90;93.10;;;19.19;58.15;99595.69;5027831;27;125169;-79
2023/09/30 05:48:21;;;;;;;;;;;18.90;93.10;;;19.18;58.35;99589.28;5036350;27;114681;-82
2023/09/30 05:50:51;;;;;;;;;;;18.90;93.20;;;19.18;58.05;99594.88;5076152;27;114074;-79
2023/09/30 05:53:17;;;;;;;;;;;18.90;93.20;;;19.20;58.16;99614.94;5030204;27;124360;-82
2023/09/30 05:55:45;;;;;;;;;;;18.90;93.20;;;19.24;58.05;99614.28;5026385;27;123246;-80
2023/09/30 05:58:17;;;;;;;;;;;18.90;93.20;;;19.27;58.17;99614.38;5032378;27;114374;-79
2023/09/30 06:00:44;;;;;;;;;;;18.90;93.20;;;19.32;58.15;99621.72;5034638;27;114020;-79
2023/09/30 06:03:13;;;;;;;;;;;19.00;93.20;;;19.34;57.95;99623.03;5031649;27;123627;-81
2023/09/30 06:05:42;;;;;;;;;;;19.00;93.20;;;19.36;57.94;99617.03;5031113;27;123963;-78
2023/09/30 06:08:13;;;;;;;;;;;19.00;93.20;;;19.38;57.80;99615.53;5032533;27;113446;-80
2023/09/30 06:10:42;;;;;;;;;;;19.00;93.20;;;19.35;57.88;99621.84;5036621;27;112541;-81
2023/09/30 06:13:11;;;;;;;;;;;18.30;92.80;;;19.35;57.73;99623.84;5043073;27;123505;-79
2023/09/30 06:15:42;;;;;;;;;;;19.00;93.10;;;19.36;57.57;99640.28;5037169;27;124260;-78
2023/09/30 06:18:09;;;;;;;;;;;19.00;93.10;;;19.37;57.52;99646.69;5026998;27;115517;-79
2023/09/30 06:20:38;;;;;;;;;;;19.00;93.00;;;19.36;57.33;99645.88;5025130;27;115150;-80
2023/09/30 06:23:04;;;;;;;;;;;19.00;93.00;;;19.35;57.53;99655.47;5029758;27;123727;-79
2023/09/30 06:25:34;;;;;;;;;;;19.00;93.00;;;19.36;57.47;99656.28;5027521;27;124096;-79
2023/09/30 06:28:00;;;;;;;;;;;17.70;92.70;;;19.33;57.56;99652.19;5011705;27;113614;-81
2023/09/30 06:30:29;;;;;;;;;;;19.00;93.00;;;19.33;57.63;99651.38;5026673;27;115164;-80
2023/09/30 06:32:57;;;;;;;;;;;19.00;93.00;;;19.30;57.57;99652.91;5059372;27;124308;-79
2023/09/30 06:35:23;;;;;;;;;;;19.00;93.00;;;19.29;57.76;99650.44;5014877;27;122901;-86
2023/09/30 06:37:51;;;;;;;;;;;19.00;93.00;;;19.29;57.78;99647.63;5028338;27;114421;-79
2023/09/30 06:40:19;;;;;;;;;;;17.40;92.30;;;19.30;57.59;99646.47;5024072;27;114174;-78
2023/09/30 06:42:45;;;;;;;;;;;19.00;93.00;;;19.30;57.83;99652.09;5037799;27;123940;-79
2023/09/30 06:45:12;;;;;;;;;;;19.00;93.00;;;19.34;57.61;99648.25;5038536;27;123955;-77
2023/09/30 06:47:45;;;;;;;;;;;19.00;93.10;;;19.37;57.79;99655.94;5020128;27;113506;-78
2023/09/30 06:50:16;;;;;;;;;;;19.00;93.10;;;19.39;57.58;99662.00;5027441;27;114421;-78
2023/09/30 06:52:49;;;;;;;;;;;19.00;93.00;;;19.40;57.57;99669.25;5023695;27;124358;-79
2023/09/30 06:55:16;;;;;;;;;;;19.00;93.00;;;19.42;57.47;99671.69;5022401;27;124113;-78
2023/09/30 06:57:47;;;;;;;;;;;19.10;93.10;;;19.43;57.42;99681.75;5030374;27;114116;-78
2023/09/30 07:00:17;;;;;;;;;;;19.10;93.10;;;19.43;57.43;99685.34;5030119;27;113285;-78
2023/09/30 07:02:46;;;;;;;;;;;19.10;93.00;;;19.41;57.71;99679.28;5032991;27;124822;-80
2023/09/30 07:05:13;;;;;;;;;;;19.00;93.10;;;19.34;57.66;99665.06;5030800;27;123024;-78
2023/09/30 07:07:45;;;;;;;;;;;19.00;93.10;;;19.33;57.49;99669.00;5033067;27;114987;-78
2023/09/30 07:10:11;;;;;;;;;;;19.10;93.10;;;19.33;57.58;99669.00;5030548;27;114677;-77
2023/09/30 07:12:37;;;;;;;;;;;19.00;93.00;;;19.33;57.82;99656.97;5050876;27;124400;-79
2023/09/30 07:15:08;;;;;;;;;;;19.10;93.10;;;19.32;57.76;99655.38;5048979;27;123740;-80
2023/09/30 07:17:37;;;;;;;;;;;19.00;93.10;;;19.34;57.78;99659.44;5028082;27;114491;-78
2023/09/30 07:20:07;;;;;;;;;;;19.00;93.10;;;19.40;57.57;99672.06;5055397;27;114483;-80
2023/09/30 07:22:37;;;;;;;;;;;19.10;93.10;;;19.42;57.55;99666.91;5032159;27;124211;-78
2023/09/30 07:25:04;;;;;;;;;;;19.10;93.10;;;19.46;57.70;99674.63;5028979;27;124005;-81
2023/09/30 07:27:30;;;;;;;;;;;19.10;93.20;;;19.49;57.46;99682.31;5047202;27;117696;-79
2023/09/30 07:29:57;;;;;;;;;;;19.10;93.10;;;19.47;57.43;99688.28;5039300;27;113887;-78
2023/09/30 07:32:25;;;;;;;;;;;19.10;93.10;;;19.47;57.51;99693.06;5024648;27;124347;-78
2023/09/30 07:34:52;;;;;;;;;;;19.10;93.10;;;19.47;57.52;99698.66;5047522;27;124518;-79
2023/09/30 07:37:20;;;;;;;;;;;19.10;93.10;;;19.48;57.42;99703.94;5063224;27;114772;-83
2023/09/30 07:39:46;;;;;;;;;;;19.10;93.10;;;19.49;57.50;99697.16;5033418;27;113760;-77
2023/09/30 07:42:12;;;;;;;;;;;19.20;93.10;;;19.49;57.50;99683.13;5017989;27;124195;-81
2023/09/30 07:44:39;;;;;;;;;;;19.20;93.00;;;19.52;57.54;99684.44;5024804;27;123862;-84
2023/09/30 07:47:06;;;;;;;;;;;19.20;93.00;;;19.52;57.48;99682.44;5030789;27;114764;-79
2023/09/30 07:49:32;;;;;;;;;;;19.20;93.00;;;19.55;57.46;99698.53;5034772;27;112797;-81
2023/09/30 07:52:01;;;;;;;;;;;19.30;93.00;;;19.60;57.26;99689.91;5013418;28;123197;-78
2023/09/30 07:54:29;;;;;;;;;;;19.30;93.10;;;19.68;57.09;99699.41;5029201;27;124572;-78
2023/09/30 07:56:58;;;;;;;;;;;19.30;93.00;;;19.75;57.05;99708.03;5032583;27;115510;-79
2023/09/30 07:59:25;;;;;;;;;;;19.40;93.00;;;19.80;56.70;99715.38;5039172;27;114344;-77
2023/09/30 08:01:54;;;;;;;;;;;19.40;93.00;;;19.83;56.61;99715.50;5034267;27;124298;-78
2023/09/30 08:04:24;;;;;;;;;;;19.40;92.90;;;19.86;56.57;99712.00;5018604;27;123350;-79
2023/09/30 08:06:51;;;;;;;;;;;19.50;92.90;;;19.89;56.62;99716.09;5035359;27;114461;-81
2023/09/30 08:09:19;;;;;;;;;;;19.50;92.80;;;19.90;56.37;99711.28;5064201;27;114040;-80
2023/09/30 08:11:45;;;;;;;;;;;19.50;92.80;;;19.95;56.28;99706.25;5020970;27;124023;-78
2023/09/30 08:14:12;;;;;;;;;;;19.50;92.80;;;20.00;56.17;99702.41;5017785;27;124240;-79
2023/09/30 08:16:38;;;;;;;;;;;19.50;92.80;;;20.04;56.26;99694.91;5029097;27;114410;-81
2023/09/30 08:19:06;;;;;;;;;;;19.60;92.80;;;20.11;56.06;99685.91;5027412;27;113388;-81
2023/09/30 08:21:32;;;;;;;;;;;19.60;92.80;;;20.20;55.99;99690.19;5029492;27;123265;-80
2023/09/30 08:23:59;;;;;;;;;;;19.70;92.70;;;20.27;55.52;99692.38;5028560;27;124929;-78
2023/09/30 08:26:25;;;;;;;;;;;19.70;92.60;;;20.29;55.33;99692.84;5033155;27;114361;-79
2023/09/30 08:28:54;;;;;;;;;;;19.70;92.50;;;20.29;55.05;99702.09;5035021;27;113703;-79
2023/09/30 08:31:21;;;;;;;;;;;19.80;92.40;;;20.32;55.28;99691.34;5037267;27;125377;-81
2023/09/30 08:33:53;;;;;;;;;;;19.80;92.40;;;20.37;55.01;99694.69;5029762;27;124372;-78
2023/09/30 08:36:19;;;;;;;;;;;19.90;92.40;;;20.44;55.02;99696.88;5026140;27;114273;-81
2023/09/30 08:38:46;;;;;;;;;;;20.00;92.40;;;20.51;55.10;99702.72;5040618;27;113645;-76
2023/09/30 08:41:26;;;;;;;;;;;20.00;92.20;;;20.58;55.02;99688.91;5043101;27;124298;-81
2023/09/30 08:43:57;;;;;;;;;;;20.10;92.20;;;20.65;54.77;99689.09;5079751;27;123941;-80
2023/09/30 08:46:24;;;;;;;;;;;20.20;92.10;;;20.69;54.34;99684.41;5053511;27;115399;-75
2023/09/30 08:48:51;;;;;;;;;;;20.20;91.90;;;20.71;53.78;99676.44;5031580;27;114652;-81
2023/09/30 08:51:19;;;;;;;;;;;20.20;91.70;;;20.71;54.00;99687.69;5035052;27;124041;-78
2023/09/30 08:53:46;;;;;;;;;;;20.20;91.60;;;20.74;53.50;99698.19;5042173;27;124628;-79
2023/09/30 08:56:14;;;;;;;;;;;20.30;91.50;;;20.81;53.54;99689.13;5051471;27;113903;-81
2023/09/30 08:58:41;;;;;;;;;;;20.30;91.40;;;20.85;52.95;99680.81;5031423;27;113049;-87
2023/09/30 09:01:09;;;;;;;;;;;20.40;91.20;;;20.90;53.34;99683.34;5017064;27;124064;-81
2023/09/30 09:03:36;;;;;;;;;;;20.40;91.20;;;20.93;52.70;99675.03;5029332;27;125108;-84
2023/09/30 09:06:04;;;;;;;;;;;20.40;91.00;;;21.00;52.81;99673.59;5022381;27;113422;-83
2023/09/30 09:08:32;;;;;;;;;;;20.50;91.00;;;21.08;52.81;99676.22;5042352;27;113459;-81
2023/09/30 09:11:00;;;;;;;;;;;20.60;90.90;;;21.11;52.25;99678.28;5032870;27;124107;-82
2023/09/30 09:13:27;;;;;;;;;;;20.60;90.60;;;21.11;52.03;99674.66;5027130;27;124247;-81
2023/09/30 09:16:09;;;;;;;;;;;20.70;90.60;;;21.09;52.28;99680.66;5030150;27;114258;-82
2023/09/30 09:18:36;;;;;;;;;;;20.70;90.40;;;21.12;51.78;99699.63;5028012;27;114441;-82
2023/09/30 09:21:10;;;;;;;;;;;20.70;90.40;;;21.15;52.33;99696.06;5060203;27;124161;-81
2023/09/30 09:23:46;;;;;;;;;;;20.70;90.50;;;21.25;52.12;99694.72;5036429;27;125097;-82
2023/09/30 09:26:26;;;;;;;;;;;20.80;90.50;;;21.33;51.71;99692.91;5034131;27;115325;-82
2023/09/30 09:29:00;;;;;;;;;;;20.80;90.20;;;21.38;51.19;99695.47;5028242;27;113400;-81
2023/09/30 09:31:28;;;;;;;;;;;20.90;90.10;;;21.41;50.71;99694.72;5004269;28;123199;-81
2023/09/30 09:33:55;;;;;;;;;;;21.00;89.40;;;21.42;50.90;99699.19;5028455;27;124197;-80
2023/09/30 09:36:22;;;;;;;;;;;21.00;89.30;;;21.45;50.99;99692.84;5033493;27;114434;-82
2023/09/30 09:38:53;;;;;;;;;;;21.00;89.50;;;21.49;50.60;99685.28;5007628;28;113855;-81
2023/09/30 09:41:23;;;;;;;;;;;21.00;89.40;;;21.50;50.42;99681.31;5025039;28;124370;-82
2023/09/30 09:43:52;;;;;;;;;;;21.00;88.70;;;21.55;50.62;99675.41;5028330;27;123949;-82
2023/09/30 09:46:18;;;;;;;;;;;21.10;88.80;;;21.61;50.29;99664.72;5007725;28;113381;-81
2023/09/30 09:48:48;;;;;;;;;;;21.20;88.60;;;21.68;50.16;99667.69;5017338;28;113927;-81
2023/09/30 09:51:16;;;;;;;;;;;21.20;88.30;;;21.74;50.09;99666.22;5028639;27;124849;-80
2023/09/30 09:53:43;;;;;;;;;;;21.30;88.00;;;21.82;49.56;99664.41;5057097;27;124203;-81
2023/09/30 09:56:10;;;;;;;;;;;21.40;87.90;;;21.90;49.32;99669.00;5024874;27;114392;-81
2023/09/30 09:58:40;;;;;;;;;;;21.40;87.50;;;21.95;49.09;99668.72;5022171;27;114963;-81
2023/09/30 10:01:08;;;;;;;;;;;21.50;87.30;;;22.01;49.09;99670.03;5061046;27;124275;-82
2023/09/30 10:03:34;;;;;;;;;;;21.50;87.50;;;22.07;49.04;99667.75;5030008;27;126015;-81
2023/09/30 10:06:04;;;;;;;;;;;21.60;87.30;;;22.08;49.09;99674.19;5030124;27;114954;-82
2023/09/30 10:08:39;;;;;;;;;;;21.60;86.80;;;22.04;49.30;99669.31;5010574;28;113006;-82
2023/09/30 10:11:06;;;;;;;;;;;21.60;87.10;;;22.06;49.34;99675.38;5018499;27;125063;-81
2023/09/30 10:14:04;;;;;;;;;;;21.60;87.00;;;22.10;48.90;99672.66;5018322;28;124254;-80
2023/09/30 10:16:36;;;;;;;;;;;21.60;86.90;;;22.13;48.44;99657.81;5027162;27;114406;-82
2023/09/30 10:19:08;;;;;;;;;;;21.70;86.30;;;22.11;48.63;99654.59;5029554;27;114208;-82
2023/09/30 10:21:37;;;;;;;;;;;21.70;86.50;;;22.12;48.65;99649.78;5026598;27;124401;-81
2023/09/30 10:24:22;;;;;;;;;;;21.70;85.90;;;22.08;48.78;99646.84;5029173;27;123338;-81
2023/09/30 10:27:31;;;;;;;;;;;21.70;85.70;;;22.09;48.62;99654.13;5028075;27;115139;-81
2023/09/30 10:30:01;;;;;;;;;;;21.70;85.60;;;22.14;48.48;99651.03;5030066;27;114722;-81
2023/09/30 10:32:58;;;;;;;;;;;21.80;85.70;;;22.17;48.08;99650.28;5026559;27;123660;-81
2023/09/30 10:35:27;;;;;;;;;;;21.80;85.50;;;22.21;48.36;99647.56;5026134;27;124519;-82
2023/09/30 10:38:21;;;;;;;;;;;21.80;85.40;;;22.25;48.11;99654.09;5028234;27;114694;-81
2023/09/30 10:40:48;;;;;;;;;;;21.90;85.10;;;22.27;47.86;99660.16;5026878;27;113746;-80
2023/09/30 10:43:36;;;;;;;;;;;21.90;84.80;;;22.26;47.88;99650.09;5027898;27;124807;-81
2023/09/30 10:46:22;;;;;;;;;;;21.90;84.50;;;22.29;47.65;99652.16;5047053;27;123234;-80
2023/09/30 10:48:51;;;;;;;;;;;21.90;84.40;;;22.30;47.64;99645.38;5029322;27;114282;-81
2023/09/30 10:51:21;;;;;;;;;;;22.00;84.50;;;22.34;47.17;99637.78;5047887;27;112698;-82
2023/09/30 10:53:52;;;;;;;;;;;22.00;83.80;;;22.36;47.32;99641.06;5012448;28;123253;-81
2023/09/30 10:56:20;;;;;;;;;;;22.00;83.40;;;22.36;46.91;99635.44;5024057;27;124130;-81
2023/09/30 10:58:51;;;;;;;;;;;22.00;83.30;;;22.36;47.37;99629.78;5012489;28;113452;-81
2023/09/30 11:01:19;;;;;;;;;;;22.00;83.30;;;22.41;47.34;99621.06;5022284;27;113690;-83
2023/09/30 11:03:46;;;;;;;;;;;22.10;83.50;;;22.54;47.25;99629.31;5047280;27;124207;-83
2023/09/30 11:06:17;;;;;;;;;;;22.10;83.50;;;22.66;47.16;99626.34;5036706;27;124880;-83
2023/09/30 11:08:51;;;;;;;;;;;22.20;83.50;;;22.78;46.68;99616.88;5065457;27;114503;-83
2023/09/30 11:11:20;;;;;;;;;;;22.20;83.40;;;22.92;46.14;99615.16;5031052;27;114228;-82
2023/09/30 11:13:51;;;;;;;;;;;22.30;82.70;;;23.03;45.20;99614.56;5029548;27;124145;-83
2023/09/30 11:16:17;;;;;;;;;;;22.40;81.50;;;23.11;44.76;99602.22;5060772;27;123924;-84
2023/09/30 11:18:44;;;;;;;;;;;22.40;81.00;;;23.21;44.25;99600.75;5029589;27;115180;-83